sensor_id;sensor_type;location;lat;lon;timestamp;P1;durP1;ratioP1;P2;durP2;ratioP2
24961;SDS011;12992;50.884;13.668;2023-04-23T00:00:26;6.40;;;2.80;;
24961;SDS011;12992;50.884;13.668;2023-04-23T00:02:52;5.72;;;2.90;;
24961;SDS011;12992;50.884;13.668;2023-04-23T00:05:18;7.43;;;2.60;;
24961;SDS011;12992;50.884;13.668;2023-04-23T00:07:44;6.25;;;3.15;;
24961;SDS011;12992;50.884;13.668;2023-04-23T00:10:10;4.15;;;2.80;;
24961;SDS011;12992;50.884;13.668;2023-04-23T00:12:36;6.32;;;2.88;;
24961;SDS011;12992;50.884;13.668;2023-04-23T00:15:02;4.88;;;2.80;;
24961;SDS011;12992;50.884;13.668;2023-04-23T00:17:28;4.18;;;3.08;;
24961;SDS011;12992;50.884;13.668;2023-04-23T00:19:53;10.43;;;3.60;;
24961;SDS011;12992;50.884;13.668;2023-04-23T00:22:19;8.18;;;3.33;;
24961;SDS011;12992;50.884;13.668;2023-04-23T00:24:44;4.80;;;2.75;;
24961;SDS011;12992;50.884;13.668;2023-04-23T00:27:10;6.70;;;3.22;;
24961;SDS011;12992;50.884;13.668;2023-04-23T00:29:35;6.18;;;3.22;;
24961;SDS011;12992;50.884;13.668;2023-04-23T00:32:00;4.20;;;3.00;;
24961;SDS011;12992;50.884;13.668;2023-04-23T00:34:27;6.05;;;2.90;;
24961;SDS011;12992;50.884;13.668;2023-04-23T00:36:52;4.90;;;2.80;;
24961;SDS011;12992;50.884;13.668;2023-04-23T00:39:17;4.30;;;2.90;;
24961;SDS011;12992;50.884;13.668;2023-04-23T00:41:44;9.57;;;3.22;;
24961;SDS011;12992;50.884;13.668;2023-04-23T00:44:09;5.30;;;3.42;;
24961;SDS011;12992;50.884;13.668;2023-04-23T00:46:35;3.97;;;2.80;;
24961;SDS011;12992;50.884;13.668;2023-04-23T00:49:01;3.67;;;2.80;;
24961;SDS011;12992;50.884;13.668;2023-04-23T00:51:27;4.82;;;2.83;;
24961;SDS011;12992;50.884;13.668;2023-04-23T00:53:53;3.78;;;2.90;;
24961;SDS011;12992;50.884;13.668;2023-04-23T00:56:20;4.35;;;3.00;;
24961;SDS011;12992;50.884;13.668;2023-04-23T00:58:46;5.03;;;3.20;;
24961;SDS011;12992;50.884;13.668;2023-04-23T01:01:11;6.40;;;2.95;;
24961;SDS011;12992;50.884;13.668;2023-04-23T01:03:37;5.28;;;3.50;;
24961;SDS011;12992;50.884;13.668;2023-04-23T01:06:05;5.53;;;3.22;;
24961;SDS011;12992;50.884;13.668;2023-04-23T01:08:31;6.88;;;2.80;;
24961;SDS011;12992;50.884;13.668;2023-04-23T01:10:58;5.18;;;2.97;;
24961;SDS011;12992;50.884;13.668;2023-04-23T01:13:24;6.30;;;3.10;;
24961;SDS011;12992;50.884;13.668;2023-04-23T01:15:53;4.97;;;3.10;;
24961;SDS011;12992;50.884;13.668;2023-04-23T01:18:19;6.35;;;3.33;;
24961;SDS011;12992;50.884;13.668;2023-04-23T01:20:45;5.32;;;3.33;;
24961;SDS011;12992;50.884;13.668;2023-04-23T01:23:10;5.68;;;3.22;;
24961;SDS011;12992;50.884;13.668;2023-04-23T01:25:36;4.40;;;2.88;;
24961;SDS011;12992;50.884;13.668;2023-04-23T01:28:02;4.50;;;3.10;;
24961;SDS011;12992;50.884;13.668;2023-04-23T01:30:30;7.03;;;3.15;;
24961;SDS011;12992;50.884;13.668;2023-04-23T01:32:56;7.10;;;2.90;;
24961;SDS011;12992;50.884;13.668;2023-04-23T01:35:22;4.18;;;3.15;;
24961;SDS011;12992;50.884;13.668;2023-04-23T01:37:48;6.93;;;3.42;;
24961;SDS011;12992;50.884;13.668;2023-04-23T01:40:18;5.93;;;3.05;;
24961;SDS011;12992;50.884;13.668;2023-04-23T01:42:45;5.57;;;2.97;;
24961;SDS011;12992;50.884;13.668;2023-04-23T01:45:10;6.65;;;3.75;;
24961;SDS011;12992;50.884;13.668;2023-04-23T01:47:36;7.55;;;3.13;;
24961;SDS011;12992;50.884;13.668;2023-04-23T01:50:01;5.72;;;3.75;;
24961;SDS011;12992;50.884;13.668;2023-04-23T01:52:28;5.55;;;3.25;;
24961;SDS011;12992;50.884;13.668;2023-04-23T01:54:53;6.05;;;3.53;;
24961;SDS011;12992;50.884;13.668;2023-04-23T01:57:19;5.32;;;2.88;;
24961;SDS011;12992;50.884;13.668;2023-04-23T01:59:48;5.60;;;3.30;;
24961;SDS011;12992;50.884;13.668;2023-04-23T02:02:14;4.22;;;3.30;;
24961;SDS011;12992;50.884;13.668;2023-04-23T02:04:40;4.90;;;3.22;;
24961;SDS011;12992;50.884;13.668;2023-04-23T02:07:08;5.50;;;3.60;;
24961;SDS011;12992;50.884;13.668;2023-04-23T02:09:34;4.75;;;3.22;;
24961;SDS011;12992;50.884;13.668;2023-04-23T02:12:00;5.03;;;3.25;;
24961;SDS011;12992;50.884;13.668;2023-04-23T02:14:25;6.50;;;3.00;;
24961;SDS011;12992;50.884;13.668;2023-04-23T02:16:51;10.02;;;3.50;;
24961;SDS011;12992;50.884;13.668;2023-04-23T02:19:16;3.80;;;2.95;;
24961;SDS011;12992;50.884;13.668;2023-04-23T02:21:42;4.57;;;3.00;;
24961;SDS011;12992;50.884;13.668;2023-04-23T02:24:07;6.47;;;3.05;;
24961;SDS011;12992;50.884;13.668;2023-04-23T02:26:32;4.07;;;3.05;;
24961;SDS011;12992;50.884;13.668;2023-04-23T02:28:57;6.22;;;2.80;;
24961;SDS011;12992;50.884;13.668;2023-04-23T02:31:23;4.18;;;2.80;;
24961;SDS011;12992;50.884;13.668;2023-04-23T02:33:48;4.70;;;2.60;;
24961;SDS011;12992;50.884;13.668;2023-04-23T02:36:14;3.60;;;2.50;;
24961;SDS011;12992;50.884;13.668;2023-04-23T02:38:40;3.65;;;2.47;;
24961;SDS011;12992;50.884;13.668;2023-04-23T02:41:09;3.83;;;2.78;;
24961;SDS011;12992;50.884;13.668;2023-04-23T02:43:35;3.70;;;2.80;;
24961;SDS011;12992;50.884;13.668;2023-04-23T02:46:01;4.32;;;2.50;;
24961;SDS011;12992;50.884;13.668;2023-04-23T02:48:34;3.42;;;2.50;;
24961;SDS011;12992;50.884;13.668;2023-04-23T02:51:01;4.32;;;2.60;;
24961;SDS011;12992;50.884;13.668;2023-04-23T02:53:27;4.60;;;3.13;;
24961;SDS011;12992;50.884;13.668;2023-04-23T02:55:52;4.78;;;2.80;;
24961;SDS011;12992;50.884;13.668;2023-04-23T02:58:18;2.80;;;2.40;;
24961;SDS011;12992;50.884;13.668;2023-04-23T03:00:46;7.85;;;2.95;;
24961;SDS011;12992;50.884;13.668;2023-04-23T03:03:12;4.25;;;2.67;;
24961;SDS011;12992;50.884;13.668;2023-04-23T03:05:37;4.30;;;2.60;;
24961;SDS011;12992;50.884;13.668;2023-04-23T03:08:03;3.67;;;2.60;;
24961;SDS011;12992;50.884;13.668;2023-04-23T03:10:28;5.05;;;2.53;;
24961;SDS011;12992;50.884;13.668;2023-04-23T03:12:54;4.78;;;2.95;;
24961;SDS011;12992;50.884;13.668;2023-04-23T03:15:20;4.68;;;2.70;;
24961;SDS011;12992;50.884;13.668;2023-04-23T03:17:46;3.35;;;2.65;;
24961;SDS011;12992;50.884;13.668;2023-04-23T03:20:11;4.18;;;2.60;;
24961;SDS011;12992;50.884;13.668;2023-04-23T03:22:38;5.00;;;2.55;;
24961;SDS011;12992;50.884;13.668;2023-04-23T03:25:04;5.55;;;3.00;;
24961;SDS011;12992;50.884;13.668;2023-04-23T03:27:30;3.75;;;3.15;;
24961;SDS011;12992;50.884;13.668;2023-04-23T03:29:56;6.22;;;2.70;;
24961;SDS011;12992;50.884;13.668;2023-04-23T03:32:21;5.45;;;2.90;;
24961;SDS011;12992;50.884;13.668;2023-04-23T03:34:47;4.57;;;2.53;;
24961;SDS011;12992;50.884;13.668;2023-04-23T03:37:12;3.95;;;2.72;;
24961;SDS011;12992;50.884;13.668;2023-04-23T03:39:37;3.42;;;2.80;;
24961;SDS011;12992;50.884;13.668;2023-04-23T03:42:03;3.28;;;2.15;;
24961;SDS011;12992;50.884;13.668;2023-04-23T03:44:29;3.35;;;2.30;;
24961;SDS011;12992;50.884;13.668;2023-04-23T03:46:55;2.80;;;2.45;;
24961;SDS011;12992;50.884;13.668;2023-04-23T03:49:20;3.17;;;2.38;;
24961;SDS011;12992;50.884;13.668;2023-04-23T03:51:46;7.90;;;2.58;;
24961;SDS011;12992;50.884;13.668;2023-04-23T03:54:12;2.20;;;2.00;;
24961;SDS011;12992;50.884;13.668;2023-04-23T03:56:40;2.80;;;2.30;;
24961;SDS011;12992;50.884;13.668;2023-04-23T03:59:19;2.83;;;2.20;;
24961;SDS011;12992;50.884;13.668;2023-04-23T04:01:47;3.63;;;2.35;;
24961;SDS011;12992;50.884;13.668;2023-04-23T04:04:13;4.57;;;2.42;;
24961;SDS011;12992;50.884;13.668;2023-04-23T04:06:39;3.08;;;2.20;;
24961;SDS011;12992;50.884;13.668;2023-04-23T04:09:04;3.03;;;2.35;;
24961;SDS011;12992;50.884;13.668;2023-04-23T04:11:31;2.83;;;2.30;;
24961;SDS011;12992;50.884;13.668;2023-04-23T04:13:57;4.63;;;2.15;;
24961;SDS011;12992;50.884;13.668;2023-04-23T04:16:22;3.17;;;2.30;;
24961;SDS011;12992;50.884;13.668;2023-04-23T04:18:47;2.50;;;2.05;;
24961;SDS011;12992;50.884;13.668;2023-04-23T04:21:13;3.92;;;2.03;;
24961;SDS011;12992;50.884;13.668;2023-04-23T04:23:39;2.30;;;1.92;;
24961;SDS011;12992;50.884;13.668;2023-04-23T04:26:05;4.32;;;2.20;;
24961;SDS011;12992;50.884;13.668;2023-04-23T04:28:32;2.10;;;1.90;;
24961;SDS011;12992;50.884;13.668;2023-04-23T04:31:00;3.00;;;2.35;;
24961;SDS011;12992;50.884;13.668;2023-04-23T04:33:26;2.45;;;2.25;;
24961;SDS011;12992;50.884;13.668;2023-04-23T04:35:53;2.92;;;1.92;;
24961;SDS011;12992;50.884;13.668;2023-04-23T04:38:18;3.20;;;2.00;;
24961;SDS011;12992;50.884;13.668;2023-04-23T04:40:45;4.70;;;2.00;;
24961;SDS011;12992;50.884;13.668;2023-04-23T04:43:12;2.72;;;1.85;;
24961;SDS011;12992;50.884;13.668;2023-04-23T04:45:38;3.05;;;1.88;;
24961;SDS011;12992;50.884;13.668;2023-04-23T04:48:03;2.17;;;1.77;;
24961;SDS011;12992;50.884;13.668;2023-04-23T04:50:28;1.92;;;1.83;;
24961;SDS011;12992;50.884;13.668;2023-04-23T04:52:54;3.58;;;1.70;;
24961;SDS011;12992;50.884;13.668;2023-04-23T04:55:19;1.85;;;1.70;;
24961;SDS011;12992;50.884;13.668;2023-04-23T04:57:45;1.60;;;1.45;;
24961;SDS011;12992;50.884;13.668;2023-04-23T05:00:20;2.00;;;1.50;;
24961;SDS011;12992;50.884;13.668;2023-04-23T05:02:51;2.10;;;1.55;;
24961;SDS011;12992;50.884;13.668;2023-04-23T05:05:18;2.38;;;1.80;;
24961;SDS011;12992;50.884;13.668;2023-04-23T05:07:44;2.00;;;1.80;;
24961;SDS011;12992;50.884;13.668;2023-04-23T05:10:09;2.10;;;1.70;;
24961;SDS011;12992;50.884;13.668;2023-04-23T05:12:35;2.50;;;1.67;;
24961;SDS011;12992;50.884;13.668;2023-04-23T05:15:01;1.90;;;1.77;;
24961;SDS011;12992;50.884;13.668;2023-04-23T05:17:28;2.75;;;1.83;;
24961;SDS011;12992;50.884;13.668;2023-04-23T05:19:53;1.98;;;1.80;;
24961;SDS011;12992;50.884;13.668;2023-04-23T05:22:19;3.97;;;2.00;;
24961;SDS011;12992;50.884;13.668;2023-04-23T05:24:44;3.50;;;1.50;;
24961;SDS011;12992;50.884;13.668;2023-04-23T05:27:10;1.70;;;1.60;;
24961;SDS011;12992;50.884;13.668;2023-04-23T05:29:35;2.33;;;2.00;;
24961;SDS011;12992;50.884;13.668;2023-04-23T05:32:01;4.43;;;1.83;;
24961;SDS011;12992;50.884;13.668;2023-04-23T05:34:26;2.80;;;1.90;;
24961;SDS011;12992;50.884;13.668;2023-04-23T05:36:52;1.67;;;1.58;;
24961;SDS011;12992;50.884;13.668;2023-04-23T05:39:17;2.63;;;1.90;;
24961;SDS011;12992;50.884;13.668;2023-04-23T05:41:42;3.78;;;2.03;;
24961;SDS011;12992;50.884;13.668;2023-04-23T05:44:07;4.25;;;2.10;;
24961;SDS011;12992;50.884;13.668;2023-04-23T05:46:33;3.42;;;1.98;;
24961;SDS011;12992;50.884;13.668;2023-04-23T05:48:59;3.47;;;2.17;;
24961;SDS011;12992;50.884;13.668;2023-04-23T05:51:24;4.18;;;2.08;;
24961;SDS011;12992;50.884;13.668;2023-04-23T05:53:50;5.43;;;2.10;;
24961;SDS011;12992;50.884;13.668;2023-04-23T05:56:15;2.75;;;1.88;;
24961;SDS011;12992;50.884;13.668;2023-04-23T05:58:40;5.57;;;2.33;;
24961;SDS011;12992;50.884;13.668;2023-04-23T06:01:06;3.97;;;2.00;;
24961;SDS011;12992;50.884;13.668;2023-04-23T06:03:31;2.58;;;1.92;;
24961;SDS011;12992;50.884;13.668;2023-04-23T06:05:56;2.47;;;2.08;;
24961;SDS011;12992;50.884;13.668;2023-04-23T06:08:22;3.70;;;2.30;;
24961;SDS011;12992;50.884;13.668;2023-04-23T06:10:47;2.05;;;1.85;;
24961;SDS011;12992;50.884;13.668;2023-04-23T06:13:12;2.53;;;2.20;;
24961;SDS011;12992;50.884;13.668;2023-04-23T06:15:38;6.05;;;2.47;;
24961;SDS011;12992;50.884;13.668;2023-04-23T06:18:03;4.25;;;2.42;;
24961;SDS011;12992;50.884;13.668;2023-04-23T06:20:28;3.30;;;2.20;;
24961;SDS011;12992;50.884;13.668;2023-04-23T06:22:54;3.90;;;2.50;;
24961;SDS011;12992;50.884;13.668;2023-04-23T06:25:19;6.22;;;2.75;;
24961;SDS011;12992;50.884;13.668;2023-04-23T06:27:45;5.63;;;2.55;;
24961;SDS011;12992;50.884;13.668;2023-04-23T06:30:16;4.28;;;2.80;;
24961;SDS011;12992;50.884;13.668;2023-04-23T06:32:42;2.63;;;2.42;;
24961;SDS011;12992;50.884;13.668;2023-04-23T06:35:08;2.40;;;2.20;;
24961;SDS011;12992;50.884;13.668;2023-04-23T06:37:33;3.78;;;2.50;;
24961;SDS011;12992;50.884;13.668;2023-04-23T06:39:58;2.92;;;2.10;;
24961;SDS011;12992;50.884;13.668;2023-04-23T06:42:24;3.70;;;1.92;;
24961;SDS011;12992;50.884;13.668;2023-04-23T06:45:12;3.38;;;1.50;;
24961;SDS011;12992;50.884;13.668;2023-04-23T06:47:39;4.85;;;2.13;;
24961;SDS011;12992;50.884;13.668;2023-04-23T06:50:04;2.53;;;1.88;;
24961;SDS011;12992;50.884;13.668;2023-04-23T06:52:31;3.15;;;2.00;;
24961;SDS011;12992;50.884;13.668;2023-04-23T06:54:56;3.65;;;1.90;;
24961;SDS011;12992;50.884;13.668;2023-04-23T06:57:21;2.50;;;2.00;;
24961;SDS011;12992;50.884;13.668;2023-04-23T06:59:47;4.40;;;1.77;;
24961;SDS011;12992;50.884;13.668;2023-04-23T07:02:13;3.55;;;2.00;;
24961;SDS011;12992;50.884;13.668;2023-04-23T07:04:38;3.75;;;2.15;;
24961;SDS011;12992;50.884;13.668;2023-04-23T07:07:03;2.42;;;1.98;;
24961;SDS011;12992;50.884;13.668;2023-04-23T07:09:29;2.72;;;2.10;;
24961;SDS011;12992;50.884;13.668;2023-04-23T07:11:54;4.88;;;2.10;;
24961;SDS011;12992;50.884;13.668;2023-04-23T07:14:20;2.88;;;2.00;;
24961;SDS011;12992;50.884;13.668;2023-04-23T07:16:45;2.45;;;2.20;;
24961;SDS011;12992;50.884;13.668;2023-04-23T07:19:10;3.90;;;2.30;;
24961;SDS011;12992;50.884;13.668;2023-04-23T07:21:36;3.40;;;2.65;;
24961;SDS011;12992;50.884;13.668;2023-04-23T07:24:01;4.07;;;2.00;;
24961;SDS011;12992;50.884;13.668;2023-04-23T07:26:31;3.17;;;2.00;;
24961;SDS011;12992;50.884;13.668;2023-04-23T07:28:57;2.80;;;2.00;;
24961;SDS011;12992;50.884;13.668;2023-04-23T07:31:22;3.65;;;2.17;;
24961;SDS011;12992;50.884;13.668;2023-04-23T07:33:48;3.95;;;2.00;;
24961;SDS011;12992;50.884;13.668;2023-04-23T07:36:13;2.20;;;1.98;;
24961;SDS011;12992;50.884;13.668;2023-04-23T07:38:39;5.28;;;2.30;;
24961;SDS011;12992;50.884;13.668;2023-04-23T07:41:04;2.50;;;2.03;;
24961;SDS011;12992;50.884;13.668;2023-04-23T07:43:30;3.38;;;1.95;;
24961;SDS011;12992;50.884;13.668;2023-04-23T07:45:55;4.60;;;2.40;;
24961;SDS011;12992;50.884;13.668;2023-04-23T07:48:20;2.35;;;2.00;;
24961;SDS011;12992;50.884;13.668;2023-04-23T07:50:46;2.80;;;1.70;;
24961;SDS011;12992;50.884;13.668;2023-04-23T07:53:11;2.45;;;1.67;;
24961;SDS011;12992;50.884;13.668;2023-04-23T07:55:37;2.28;;;1.60;;
24961;SDS011;12992;50.884;13.668;2023-04-23T07:58:02;3.08;;;1.73;;
24961;SDS011;12992;50.884;13.668;2023-04-23T08:00:27;1.83;;;1.50;;
24961;SDS011;12992;50.884;13.668;2023-04-23T08:02:52;2.90;;;1.88;;
24961;SDS011;12992;50.884;13.668;2023-04-23T08:05:18;5.78;;;2.00;;
24961;SDS011;12992;50.884;13.668;2023-04-23T08:07:43;1.70;;;1.50;;
24961;SDS011;12992;50.884;13.668;2023-04-23T08:10:08;3.28;;;1.50;;
24961;SDS011;12992;50.884;13.668;2023-04-23T08:12:34;3.95;;;1.58;;
24961;SDS011;12992;50.884;13.668;2023-04-23T08:15:00;2.65;;;1.50;;
24961;SDS011;12992;50.884;13.668;2023-04-23T08:17:32;2.92;;;1.65;;
24961;SDS011;12992;50.884;13.668;2023-04-23T08:19:58;1.63;;;1.40;;
24961;SDS011;12992;50.884;13.668;2023-04-23T08:22:23;1.60;;;1.50;;
24961;SDS011;12992;50.884;13.668;2023-04-23T08:24:48;4.32;;;1.65;;
24961;SDS011;12992;50.884;13.668;2023-04-23T08:27:14;1.52;;;1.42;;
24961;SDS011;12992;50.884;13.668;2023-04-23T08:29:39;3.97;;;1.67;;
24961;SDS011;12992;50.884;13.668;2023-04-23T08:32:04;2.60;;;1.55;;
24961;SDS011;12992;50.884;13.668;2023-04-23T08:34:30;1.73;;;1.63;;
24961;SDS011;12992;50.884;13.668;2023-04-23T08:36:55;1.67;;;1.40;;
24961;SDS011;12992;50.884;13.668;2023-04-23T08:39:21;6.38;;;1.58;;
24961;SDS011;12992;50.884;13.668;2023-04-23T08:41:50;4.07;;;1.58;;
24961;SDS011;12992;50.884;13.668;2023-04-23T08:44:22;4.50;;;1.80;;
24961;SDS011;12992;50.884;13.668;2023-04-23T08:46:50;2.00;;;1.42;;
24961;SDS011;12992;50.884;13.668;2023-04-23T08:49:18;2.63;;;1.55;;
24961;SDS011;12992;50.884;13.668;2023-04-23T08:54:24;2.95;;;1.50;;
24961;SDS011;12992;50.884;13.668;2023-04-23T08:56:54;1.63;;;1.20;;
24961;SDS011;12992;50.884;13.668;2023-04-23T08:59:21;1.45;;;1.20;;
24961;SDS011;12992;50.884;13.668;2023-04-23T09:01:47;4.28;;;1.65;;
24961;SDS011;12992;50.884;13.668;2023-04-23T09:04:12;1.60;;;1.30;;
24961;SDS011;12992;50.884;13.668;2023-04-23T09:06:41;1.20;;;1.10;;
24961;SDS011;12992;50.884;13.668;2023-04-23T09:09:07;4.07;;;1.30;;
24961;SDS011;12992;50.884;13.668;2023-04-23T09:11:33;1.58;;;1.23;;
24961;SDS011;12992;50.884;13.668;2023-04-23T09:14:01;1.20;;;1.10;;
24961;SDS011;12992;50.884;13.668;2023-04-23T09:16:27;1.58;;;1.17;;
24961;SDS011;12992;50.884;13.668;2023-04-23T09:18:52;1.80;;;1.15;;
24961;SDS011;12992;50.884;13.668;2023-04-23T09:21:18;1.38;;;1.10;;
24961;SDS011;12992;50.884;13.668;2023-04-23T09:23:44;1.88;;;1.10;;
24961;SDS011;12992;50.884;13.668;2023-04-23T09:26:10;1.20;;;1.10;;
24961;SDS011;12992;50.884;13.668;2023-04-23T09:28:44;1.83;;;0.93;;
24961;SDS011;12992;50.884;13.668;2023-04-23T09:31:14;1.48;;;1.08;;
24961;SDS011;12992;50.884;13.668;2023-04-23T09:33:47;2.90;;;1.00;;
24961;SDS011;12992;50.884;13.668;2023-04-23T09:36:15;1.05;;;1.00;;
24961;SDS011;12992;50.884;13.668;2023-04-23T09:38:40;0.93;;;0.80;;
24961;SDS011;12992;50.884;13.668;2023-04-23T09:41:26;0.90;;;0.90;;
24961;SDS011;12992;50.884;13.668;2023-04-23T09:43:55;1.17;;;0.73;;
24961;SDS011;12992;50.884;13.668;2023-04-23T09:46:42;0.90;;;0.65;;
24961;SDS011;12992;50.884;13.668;2023-04-23T09:49:08;1.38;;;0.70;;
24961;SDS011;12992;50.884;13.668;2023-04-23T09:51:39;2.03;;;0.80;;
24961;SDS011;12992;50.884;13.668;2023-04-23T09:56:38;0.80;;;0.70;;
24961;SDS011;12992;50.884;13.668;2023-04-23T09:59:20;0.55;;;0.50;;
24961;SDS011;12992;50.884;13.668;2023-04-23T10:01:50;0.70;;;0.60;;
24961;SDS011;12992;50.884;13.668;2023-04-23T10:04:21;0.80;;;0.60;;
24961;SDS011;12992;50.884;13.668;2023-04-23T10:06:52;1.20;;;0.70;;
24961;SDS011;12992;50.884;13.668;2023-04-23T10:09:25;0.70;;;0.63;;
24961;SDS011;12992;50.884;13.668;2023-04-23T10:11:53;0.70;;;0.70;;
24961;SDS011;12992;50.884;13.668;2023-04-23T10:14:23;0.98;;;0.60;;
24961;SDS011;12992;50.884;13.668;2023-04-23T10:16:49;2.25;;;0.60;;
24961;SDS011;12992;50.884;13.668;2023-04-23T10:19:20;1.23;;;0.70;;
24961;SDS011;12992;50.884;13.668;2023-04-23T10:21:52;0.90;;;0.65;;
24961;SDS011;12992;50.884;13.668;2023-04-23T10:24:24;1.58;;;0.80;;
24961;SDS011;12992;50.884;13.668;2023-04-23T10:26:55;1.55;;;1.00;;
24961;SDS011;12992;50.884;13.668;2023-04-23T10:29:26;1.02;;;0.85;;
24961;SDS011;12992;50.884;13.668;2023-04-23T10:31:57;0.95;;;0.77;;
24961;SDS011;12992;50.884;13.668;2023-04-23T10:34:24;1.40;;;1.30;;
24961;SDS011;12992;50.884;13.668;2023-04-23T10:36:50;0.82;;;0.82;;
24961;SDS011;12992;50.884;13.668;2023-04-23T10:39:18;0.88;;;0.88;;
24961;SDS011;12992;50.884;13.668;2023-04-23T10:41:44;1.85;;;1.00;;
24961;SDS011;12992;50.884;13.668;2023-04-23T10:44:13;1.10;;;1.00;;
24961;SDS011;12992;50.884;13.668;2023-04-23T10:46:49;0.98;;;0.88;;
24961;SDS011;12992;50.884;13.668;2023-04-23T10:49:16;1.27;;;0.75;;
24961;SDS011;12992;50.884;13.668;2023-04-23T10:51:44;1.33;;;0.90;;
24961;SDS011;12992;50.884;13.668;2023-04-23T10:54:14;0.80;;;0.80;;
24961;SDS011;12992;50.884;13.668;2023-04-23T10:56:43;2.45;;;0.70;;
24961;SDS011;12992;50.884;13.668;2023-04-23T11:01:46;0.85;;;0.70;;
24961;SDS011;12992;50.884;13.668;2023-04-23T11:04:22;1.85;;;0.80;;
24961;SDS011;12992;50.884;13.668;2023-04-23T11:06:50;0.80;;;0.80;;
24961;SDS011;12992;50.884;13.668;2023-04-23T11:09:34;0.80;;;0.80;;
24961;SDS011;12992;50.884;13.668;2023-04-23T11:12:05;1.20;;;0.82;;
24961;SDS011;12992;50.884;13.668;2023-04-23T11:14:32;2.08;;;0.90;;
24961;SDS011;12992;50.884;13.668;2023-04-23T11:17:00;1.05;;;0.90;;
24961;SDS011;12992;50.884;13.668;2023-04-23T11:19:26;2.85;;;1.13;;
24961;SDS011;12992;50.884;13.668;2023-04-23T11:21:54;0.95;;;0.73;;
24961;SDS011;12992;50.884;13.668;2023-04-23T11:24:28;0.80;;;0.80;;
24961;SDS011;12992;50.884;13.668;2023-04-23T11:26:53;0.85;;;0.82;;
24961;SDS011;12992;50.884;13.668;2023-04-23T11:29:22;1.10;;;1.00;;
24961;SDS011;12992;50.884;13.668;2023-04-23T11:31:49;0.73;;;0.73;;
24961;SDS011;12992;50.884;13.668;2023-04-23T11:34:16;1.00;;;0.90;;
24961;SDS011;12992;50.884;13.668;2023-04-23T11:36:42;2.17;;;0.80;;
24961;SDS011;12992;50.884;13.668;2023-04-23T11:39:07;1.13;;;0.80;;
24961;SDS011;12992;50.884;13.668;2023-04-23T11:41:34;1.10;;;0.80;;
24961;SDS011;12992;50.884;13.668;2023-04-23T11:44:03;1.17;;;1.00;;
24961;SDS011;12992;50.884;13.668;2023-04-23T11:46:29;0.80;;;0.80;;
24961;SDS011;12992;50.884;13.668;2023-04-23T11:48:54;0.95;;;0.88;;
24961;SDS011;12992;50.884;13.668;2023-04-23T11:51:26;0.77;;;0.75;;
24961;SDS011;12992;50.884;13.668;2023-04-23T11:53:51;0.80;;;0.80;;
24961;SDS011;12992;50.884;13.668;2023-04-23T11:56:17;0.70;;;0.70;;
24961;SDS011;12992;50.884;13.668;2023-04-23T11:58:44;1.08;;;0.90;;
24961;SDS011;12992;50.884;13.668;2023-04-23T12:01:10;0.90;;;0.90;;
24961;SDS011;12992;50.884;13.668;2023-04-23T12:03:38;1.13;;;1.00;;
24961;SDS011;12992;50.884;13.668;2023-04-23T12:06:04;1.00;;;0.90;;
24961;SDS011;12992;50.884;13.668;2023-04-23T12:08:33;2.38;;;0.98;;
24961;SDS011;12992;50.884;13.668;2023-04-23T12:11:00;1.30;;;1.20;;
24961;SDS011;12992;50.884;13.668;2023-04-23T12:13:28;1.13;;;1.02;;
24961;SDS011;12992;50.884;13.668;2023-04-23T12:15:58;1.10;;;1.00;;
24961;SDS011;12992;50.884;13.668;2023-04-23T12:18:26;1.73;;;1.50;;
24961;SDS011;12992;50.884;13.668;2023-04-23T12:20:52;1.95;;;1.65;;
24961;SDS011;12992;50.884;13.668;2023-04-23T12:23:17;1.48;;;1.00;;
24961;SDS011;12992;50.884;13.668;2023-04-23T12:25:42;1.20;;;1.10;;
24961;SDS011;12992;50.884;13.668;2023-04-23T12:28:08;0.90;;;0.90;;
24961;SDS011;12992;50.884;13.668;2023-04-23T12:30:33;1.90;;;1.10;;
24961;SDS011;12992;50.884;13.668;2023-04-23T12:33:09;1.17;;;1.00;;
24961;SDS011;12992;50.884;13.668;2023-04-23T12:35:39;1.17;;;1.10;;
24961;SDS011;12992;50.884;13.668;2023-04-23T12:38:20;1.33;;;1.15;;
24961;SDS011;12992;50.884;13.668;2023-04-23T12:40:53;1.90;;;1.15;;
24961;SDS011;12992;50.884;13.668;2023-04-23T12:43:20;1.08;;;1.00;;
24961;SDS011;12992;50.884;13.668;2023-04-23T12:45:46;1.08;;;1.00;;
24961;SDS011;12992;50.884;13.668;2023-04-23T12:48:12;1.02;;;0.85;;
24961;SDS011;12992;50.884;13.668;2023-04-23T12:50:38;0.80;;;0.80;;
24961;SDS011;12992;50.884;13.668;2023-04-23T12:53:04;0.93;;;0.93;;
24961;SDS011;12992;50.884;13.668;2023-04-23T12:55:29;0.88;;;0.88;;
24961;SDS011;12992;50.884;13.668;2023-04-23T12:57:55;1.17;;;1.08;;
24961;SDS011;12992;50.884;13.668;2023-04-23T13:00:20;0.93;;;0.88;;
24961;SDS011;12992;50.884;13.668;2023-04-23T13:02:46;1.00;;;0.90;;
24961;SDS011;12992;50.884;13.668;2023-04-23T13:05:11;0.82;;;0.82;;
24961;SDS011;12992;50.884;13.668;2023-04-23T13:07:37;0.70;;;0.70;;
24961;SDS011;12992;50.884;13.668;2023-04-23T13:10:02;1.73;;;0.75;;
24961;SDS011;12992;50.884;13.668;2023-04-23T13:12:28;1.33;;;1.13;;
24961;SDS011;12992;50.884;13.668;2023-04-23T13:14:53;1.83;;;0.95;;
24961;SDS011;12992;50.884;13.668;2023-04-23T13:17:18;1.95;;;0.90;;
24961;SDS011;12992;50.884;13.668;2023-04-23T13:19:44;0.85;;;0.60;;
24961;SDS011;12992;50.884;13.668;2023-04-23T13:22:09;1.92;;;0.95;;
24961;SDS011;12992;50.884;13.668;2023-04-23T13:24:34;1.52;;;1.10;;
24961;SDS011;12992;50.884;13.668;2023-04-23T13:27:00;1.40;;;1.30;;
24961;SDS011;12992;50.884;13.668;2023-04-23T13:29:25;2.00;;;1.70;;
24961;SDS011;12992;50.884;13.668;2023-04-23T13:31:52;2.22;;;1.40;;
24961;SDS011;12992;50.884;13.668;2023-04-23T13:34:18;3.22;;;1.60;;
24961;SDS011;12992;50.884;13.668;2023-04-23T13:36:43;2.97;;;1.52;;
24961;SDS011;12992;50.884;13.668;2023-04-23T13:39:09;2.50;;;1.60;;
24961;SDS011;12992;50.884;13.668;2023-04-23T13:41:37;3.17;;;1.83;;
24961;SDS011;12992;50.884;13.668;2023-04-23T13:44:02;2.53;;;1.65;;
24961;SDS011;12992;50.884;13.668;2023-04-23T13:46:27;3.15;;;1.90;;
24961;SDS011;12992;50.884;13.668;2023-04-23T13:48:53;1.90;;;1.60;;
24961;SDS011;12992;50.884;13.668;2023-04-23T13:51:18;1.80;;;1.50;;
24961;SDS011;12992;50.884;13.668;2023-04-23T13:53:43;2.75;;;1.70;;
24961;SDS011;12992;50.884;13.668;2023-04-23T13:56:09;1.60;;;1.45;;
24961;SDS011;12992;50.884;13.668;2023-04-23T13:58:34;1.60;;;1.50;;
24961;SDS011;12992;50.884;13.668;2023-04-23T14:01:00;2.38;;;1.70;;
24961;SDS011;12992;50.884;13.668;2023-04-23T14:03:25;4.30;;;1.92;;
24961;SDS011;12992;50.884;13.668;2023-04-23T14:05:50;2.03;;;1.73;;
24961;SDS011;12992;50.884;13.668;2023-04-23T14:08:16;1.77;;;1.60;;
24961;SDS011;12992;50.884;13.668;2023-04-23T14:10:41;2.55;;;1.92;;
24961;SDS011;12992;50.884;13.668;2023-04-23T14:13:06;2.88;;;1.65;;
24961;SDS011;12992;50.884;13.668;2023-04-23T14:15:32;2.17;;;2.00;;
24961;SDS011;12992;50.884;13.668;2023-04-23T14:17:57;2.00;;;1.80;;
24961;SDS011;12992;50.884;13.668;2023-04-23T14:20:23;1.90;;;1.80;;
24961;SDS011;12992;50.884;13.668;2023-04-23T14:22:50;2.13;;;1.92;;
24961;SDS011;12992;50.884;13.668;2023-04-23T14:25:24;1.95;;;1.75;;
24961;SDS011;12992;50.884;13.668;2023-04-23T14:27:54;2.80;;;1.98;;
24961;SDS011;12992;50.884;13.668;2023-04-23T14:30:20;2.05;;;1.83;;
24961;SDS011;12992;50.884;13.668;2023-04-23T14:32:48;2.40;;;2.20;;
24961;SDS011;12992;50.884;13.668;2023-04-23T14:35:14;2.22;;;1.95;;
24961;SDS011;12992;50.884;13.668;2023-04-23T14:37:42;1.95;;;1.83;;